Time;durP1;ratioP1;P1;durP2;ratioP2;P2;SDS_P1;SDS_P2;PMS_P1;PMS_P2;Temp;Humidity;BMP_temperature;BMP_pressure;BME280_temperature;BME280_humidity;BME280_pressure;Samples;Min_cycle;Max_cycle;Signal;HPM_P1;HPM_P2
2023/04/07 00:01:51;;;;;;;34.83;19.97;;;;;;;;;;5012312;28;20030;-73
2023/04/07 00:04:17;;;;;;;44.27;21.33;;;;;;;;;;5011382;28;20492;-72
2023/04/07 00:06:42;;;;;;;34.13;19.57;;;;;;;;;;5027633;28;20033;-73
2023/04/07 00:09:11;;;;;;;39.77;19.57;;;;;;;;;;5012711;28;20504;-73
2023/04/07 00:11:37;;;;;;;42.47;20.73;;;;;;;;;;5012063;28;20382;-74
2023/04/07 00:14:03;;;;;;;42.97;19.87;;;;;;;;;;5011263;28;20026;-73
2023/04/07 00:16:28;;;;;;;44.17;21.27;;;;;;;;;;5010971;28;20461;-73
2023/04/07 00:18:54;;;;;;;39.00;19.47;;;;;;;;;;4994415;28;20034;-74
2023/04/07 00:21:19;;;;;;;38.40;20.13;;;;;;;;;;5010674;28;20026;-74
2023/04/07 00:23:46;;;;;;;35.37;19.13;;;;;;;;;;5011756;28;20034;-73
2023/04/07 00:26:12;;;;;;;42.07;19.50;;;;;;;;;;5010642;28;20026;-73
2023/04/07 00:28:37;;;;;;;40.10;19.60;;;;;;;;;;5011922;28;20433;-72
2023/04/07 00:31:02;;;;;;;35.10;19.47;;;;;;;;;;5010308;28;20057;-73
2023/04/07 00:33:28;;;;;;;35.27;19.63;;;;;;;;;;5011658;28;20447;-74
2023/04/07 00:35:53;;;;;;;42.20;19.50;;;;;;;;;;5011894;28;20105;-74
2023/04/07 00:38:20;;;;;;;40.67;18.80;;;;;;;;;;5010173;28;20033;-74
2023/04/07 00:40:45;;;;;;;40.23;18.83;;;;;;;;;;5024133;28;20029;-74
2023/04/07 00:43:10;;;;;;;43.00;20.90;;;;;;;;;;5029290;28;20535;-73
2023/04/07 00:45:36;;;;;;;40.83;20.63;;;;;;;;;;5031567;28;20437;-73
2023/04/07 00:48:03;;;;;;;38.07;19.57;;;;;;;;;;5030792;28;20148;-73
2023/04/07 00:50:29;;;;;;;44.77;21.47;;;;;;;;;;5031816;28;20025;-74
2023/04/07 00:52:55;;;;;;;40.77;19.27;;;;;;;;;;5031291;28;20393;-74
2023/04/07 00:55:21;;;;;;;45.80;22.07;;;;;;;;;;5031227;28;20048;-74
2023/04/07 00:57:47;;;;;;;42.37;19.73;;;;;;;;;;5031173;28;20071;-74
2023/04/07 01:00:13;;;;;;;37.80;19.13;;;;;;;;;;5031068;28;20026;-73
2023/04/07 01:02:55;;;;;;;35.93;20.23;;;;;;;;;;5030720;28;20033;-73
2023/04/07 01:05:40;;;;;;;44.70;20.30;;;;;;;;;;5031033;28;20018;-73
2023/04/07 01:08:19;;;;;;;34.87;18.93;;;;;;;;;;5029702;28;20366;-73
2023/04/07 01:10:52;;;;;;;41.43;19.87;;;;;;;;;;5029392;28;20032;-74
2023/04/07 01:13:32;;;;;;;36.37;20.40;;;;;;;;;;5029393;28;20112;-72
2023/04/07 01:16:02;;;;;;;42.07;20.57;;;;;;;;;;5029709;28;20485;-74
2023/04/07 01:18:35;;;;;;;37.93;20.30;;;;;;;;;;5030585;28;20024;-73
2023/04/07 01:21:13;;;;;;;39.23;19.77;;;;;;;;;;5030926;28;20041;-74
2023/04/07 01:24:00;;;;;;;39.03;20.83;;;;;;;;;;5030444;28;20037;-74
2023/04/07 01:26:28;;;;;;;41.33;19.80;;;;;;;;;;5029094;28;20029;-73
2023/04/07 01:29:02;;;;;;;41.17;20.80;;;;;;;;;;5030390;28;20029;-73
2023/04/07 01:31:29;;;;;;;39.83;19.97;;;;;;;;;;5030330;28;20109;-73
2023/04/07 01:33:58;;;;;;;40.43;19.63;;;;;;;;;;5030219;28;20029;-73
2023/04/07 01:36:27;;;;;;;43.53;20.70;;;;;;;;;;5029041;28;20124;-73
2023/04/07 01:38:53;;;;;;;38.83;20.10;;;;;;;;;;5028573;28;20079;-74
2023/04/07 01:41:20;;;;;;;44.80;21.13;;;;;;;;;;5010101;28;20053;-73
2023/04/07 01:43:47;;;;;;;43.73;20.57;;;;;;;;;;5008774;28;20104;-73
2023/04/07 01:46:14;;;;;;;39.70;20.93;;;;;;;;;;5010501;28;20034;-74
2023/04/07 01:48:41;;;;;;;42.90;21.27;;;;;;;;;;5009692;28;20050;-74
2023/04/07 01:51:07;;;;;;;42.90;20.33;;;;;;;;;;5010981;28;20036;-73
2023/04/07 01:53:36;;;;;;;44.10;19.57;;;;;;;;;;5008797;28;20370;-72
2023/04/07 01:56:02;;;;;;;37.93;19.63;;;;;;;;;;5009142;28;20068;-73
2023/04/07 01:58:28;;;;;;;37.43;20.20;;;;;;;;;;5009074;28;20028;-73
2023/04/07 02:00:54;;;;;;;41.27;21.27;;;;;;;;;;5010042;28;20393;-74
2023/04/07 02:03:23;;;;;;;36.97;20.63;;;;;;;;;;5009616;28;20034;-74
2023/04/07 02:05:53;;;;;;;39.30;19.13;;;;;;;;;;5011036;28;20029;-72
2023/04/07 02:08:21;;;;;;;38.83;19.63;;;;;;;;;;5010959;28;20040;-72
2023/04/07 02:10:48;;;;;;;38.87;20.73;;;;;;;;;;5010505;28;20117;-72
2023/04/07 02:13:17;;;;;;;42.30;19.57;;;;;;;;;;5010481;28;20041;-73
2023/04/07 02:15:46;;;;;;;39.90;19.47;;;;;;;;;;5010553;28;20037;-72
2023/04/07 02:18:14;;;;;;;38.17;19.27;;;;;;;;;;5008880;28;20030;-73
2023/04/07 02:20:42;;;;;;;44.57;20.37;;;;;;;;;;5010418;28;20057;-73
2023/04/07 02:23:08;;;;;;;39.37;20.77;;;;;;;;;;5008959;28;20038;-73
2023/04/07 02:25:34;;;;;;;38.20;19.53;;;;;;;;;;5008534;28;20030;-73
2023/04/07 02:28:00;;;;;;;46.43;20.53;;;;;;;;;;5010179;28;20022;-73
2023/04/07 02:30:28;;;;;;;37.40;20.30;;;;;;;;;;5009994;28;20367;-73
2023/04/07 02:32:53;;;;;;;43.40;20.33;;;;;;;;;;5008289;28;20033;-73
2023/04/07 02:35:19;;;;;;;45.40;20.67;;;;;;;;;;5010258;28;20513;-72
2023/04/07 02:37:45;;;;;;;46.67;19.97;;;;;;;;;;5009849;28;20530;-74
2023/04/07 02:40:11;;;;;;;34.10;18.30;;;;;;;;;;5018189;28;20029;-73
2023/04/07 02:42:37;;;;;;;35.93;18.60;;;;;;;;;;5029776;28;20463;-73
2023/04/07 02:45:04;;;;;;;35.37;18.37;;;;;;;;;;5027903;28;20519;-72
2023/04/07 02:47:29;;;;;;;34.20;18.03;;;;;;;;;;5027903;28;20053;-73
2023/04/07 02:49:55;;;;;;;40.20;19.53;;;;;;;;;;5029141;28;20108;-74
2023/04/07 02:52:20;;;;;;;44.43;19.27;;;;;;;;;;5029745;28;20080;-74
2023/04/07 02:54:46;;;;;;;38.73;18.57;;;;;;;;;;5029605;28;20084;-74
2023/04/07 02:57:12;;;;;;;37.80;18.60;;;;;;;;;;5029727;28;20013;-73
2023/04/07 02:59:38;;;;;;;35.90;19.30;;;;;;;;;;5029183;28;20033;-73
2023/04/07 03:02:04;;;;;;;36.20;18.00;;;;;;;;;;5029485;28;20025;-74
2023/04/07 03:04:30;;;;;;;36.13;18.57;;;;;;;;;;5029517;28;20025;-73
2023/04/07 03:06:56;;;;;;;39.30;18.37;;;;;;;;;;5029435;28;20017;-73
2023/04/07 03:09:22;;;;;;;37.17;17.80;;;;;;;;;;5028302;28;20022;-73
2023/04/07 03:11:47;;;;;;;38.60;18.93;;;;;;;;;;5029059;28;20106;-74
2023/04/07 03:14:13;;;;;;;30.90;18.30;;;;;;;;;;5029571;28;20033;-74
2023/04/07 03:16:38;;;;;;;32.43;17.27;;;;;;;;;;5031443;28;20041;-72
2023/04/07 03:19:03;;;;;;;37.27;19.07;;;;;;;;;;5033900;28;20056;-74
2023/04/07 03:21:30;;;;;;;37.87;18.30;;;;;;;;;;5033560;28;20102;-73
2023/04/07 03:23:56;;;;;;;33.90;18.27;;;;;;;;;;5031470;28;20029;-73
2023/04/07 03:26:23;;;;;;;40.00;19.43;;;;;;;;;;5031280;28;20385;-74
2023/04/07 03:28:48;;;;;;;43.37;19.40;;;;;;;;;;5031545;28;20516;-74
2023/04/07 03:31:14;;;;;;;35.93;18.80;;;;;;;;;;5032787;28;20029;-73
2023/04/07 03:33:39;;;;;;;36.00;17.60;;;;;;;;;;5032930;28;20049;-73
2023/04/07 03:36:05;;;;;;;37.53;20.27;;;;;;;;;;5033011;28;20104;-73
2023/04/07 03:38:31;;;;;;;34.47;17.60;;;;;;;;;;5031386;28;20496;-73
2023/04/07 03:40:56;;;;;;;36.13;18.40;;;;;;;;;;5016278;28;20034;-74
2023/04/07 03:43:22;;;;;;;36.03;17.30;;;;;;;;;;5012906;28;20045;-74
2023/04/07 03:45:47;;;;;;;32.87;16.60;;;;;;;;;;5012624;28;20062;-73
2023/04/07 03:48:13;;;;;;;36.17;18.00;;;;;;;;;;5012490;28;20092;-73
2023/04/07 03:50:39;;;;;;;35.67;16.93;;;;;;;;;;5012182;28;20038;-73
2023/04/07 03:53:04;;;;;;;34.00;17.53;;;;;;;;;;5011091;28;20033;-72
2023/04/07 03:55:30;;;;;;;39.37;17.50;;;;;;;;;;5011057;28;20092;-73
2023/04/07 03:57:56;;;;;;;40.53;18.40;;;;;;;;;;5010783;28;20457;-73
2023/04/07 04:00:22;;;;;;;30.50;15.70;;;;;;;;;;5012186;28;20030;-72
2023/04/07 04:02:47;;;;;;;34.97;17.67;;;;;;;;;;5010963;28;20367;-73
2023/04/07 04:05:13;;;;;;;37.73;17.27;;;;;;;;;;5018701;28;20032;-72
2023/04/07 04:07:38;;;;;;;38.23;18.67;;;;;;;;;;5030829;28;20038;-73
2023/04/07 04:10:05;;;;;;;37.83;16.77;;;;;;;;;;5031477;28;20064;-73
2023/04/07 04:12:32;;;;;;;31.30;17.40;;;;;;;;;;5031839;28;20021;-75
2023/04/07 04:14:57;;;;;;;31.33;18.47;;;;;;;;;;5031666;28;20039;-73
2023/04/07 04:17:24;;;;;;;44.70;18.23;;;;;;;;;;5030457;28;20437;-73
2023/04/07 04:19:50;;;;;;;32.23;17.40;;;;;;;;;;5031671;28;20584;-74
2023/04/07 04:22:15;;;;;;;32.90;18.43;;;;;;;;;;5031628;28;20104;-74
2023/04/07 04:24:41;;;;;;;35.83;16.40;;;;;;;;;;5032303;28;20348;-73
2023/04/07 04:27:06;;;;;;;34.10;17.03;;;;;;;;;;5031409;28;20076;-74
2023/04/07 04:29:32;;;;;;;33.83;17.40;;;;;;;;;;5030178;28;20025;-73
2023/04/07 04:31:58;;;;;;;31.40;16.47;;;;;;;;;;5031898;28;20030;-72
2023/04/07 04:34:23;;;;;;;36.23;16.33;;;;;;;;;;5030586;28;20044;-73
2023/04/07 04:36:49;;;;;;;34.13;16.53;;;;;;;;;;5029990;28;20125;-73
2023/04/07 04:39:15;;;;;;;34.87;16.10;;;;;;;;;;5030844;28;20030;-73
2023/04/07 04:41:40;;;;;;;31.50;17.23;;;;;;;;;;5029749;28;20130;-73
2023/04/07 04:44:06;;;;;;;38.27;17.37;;;;;;;;;;5029653;28;20054;-74
2023/04/07 04:46:31;;;;;;;33.83;17.97;;;;;;;;;;5031688;28;20051;-74
2023/04/07 04:48:57;;;;;;;37.13;19.00;;;;;;;;;;5030022;28;20171;-74
2023/04/07 04:51:23;;;;;;;29.30;16.20;;;;;;;;;;5030977;28;20025;-73
2023/04/07 04:53:48;;;;;;;30.33;15.90;;;;;;;;;;5031558;28;20080;-73
2023/04/07 04:56:14;;;;;;;34.80;16.80;;;;;;;;;;5031381;28;20029;-73
2023/04/07 04:58:44;;;;;;;30.83;17.60;;;;;;;;;;5031875;28;20071;-74
2023/04/07 05:01:13;;;;;;;34.83;17.27;;;;;;;;;;5030318;28;20029;-74
2023/04/07 05:03:39;;;;;;;32.33;16.10;;;;;;;;;;5029920;28;20390;-72
2023/04/07 05:06:05;;;;;;;31.63;16.50;;;;;;;;;;5031020;28;20021;-73
2023/04/07 05:08:30;;;;;;;31.57;16.90;;;;;;;;;;5030952;28;20132;-74
2023/04/07 05:10:56;;;;;;;30.87;17.37;;;;;;;;;;5031097;28;20100;-73
2023/04/07 05:13:22;;;;;;;27.20;16.10;;;;;;;;;;5029777;28;20353;-77
2023/04/07 05:15:47;;;;;;;30.70;15.87;;;;;;;;;;5029605;28;20023;-74
2023/04/07 05:18:13;;;;;;;35.50;16.10;;;;;;;;;;5029843;28;20079;-73
2023/04/07 05:20:38;;;;;;;31.60;16.40;;;;;;;;;;5029195;28;20056;-75
2023/04/07 05:23:04;;;;;;;27.47;16.23;;;;;;;;;;5029536;28;20025;-73
2023/04/07 05:25:30;;;;;;;32.87;17.00;;;;;;;;;;5030814;28;20060;-73
2023/04/07 05:27:57;;;;;;;32.43;17.27;;;;;;;;;;5028655;28;20060;-74
2023/04/07 05:30:23;;;;;;;33.07;16.53;;;;;;;;;;5030305;28;20021;-73
2023/04/07 05:32:48;;;;;;;30.10;16.23;;;;;;;;;;5030224;28;20112;-73
2023/04/07 05:35:14;;;;;;;35.70;16.90;;;;;;;;;;5031466;28;20021;-73
2023/04/07 05:37:40;;;;;;;34.60;16.73;;;;;;;;;;5030279;28;20373;-73
2023/04/07 05:40:06;;;;;;;34.23;18.33;;;;;;;;;;5020005;28;20034;-73
2023/04/07 05:42:31;;;;;;;35.80;17.57;;;;;;;;;;5010406;28;20473;-75
2023/04/07 05:44:57;;;;;;;28.77;16.13;;;;;;;;;;5008809;28;20052;-73
2023/04/07 05:47:23;;;;;;;32.87;14.90;;;;;;;;;;5009177;28;20025;-74
2023/04/07 05:49:48;;;;;;;30.00;15.63;;;;;;;;;;5008996;28;20026;-73
2023/04/07 05:52:14;;;;;;;32.63;16.20;;;;;;;;;;5010424;28;20029;-73
2023/04/07 05:54:39;;;;;;;34.43;16.47;;;;;;;;;;5009102;28;20113;-73
2023/04/07 05:57:06;;;;;;;30.47;16.33;;;;;;;;;;5010395;28;20022;-72
2023/04/07 05:59:32;;;;;;;24.97;15.83;;;;;;;;;;5008705;28;20033;-73
2023/04/07 06:01:57;;;;;;;33.53;16.03;;;;;;;;;;5009840;28;20384;-73
2023/04/07 06:04:23;;;;;;;34.13;16.93;;;;;;;;;;5010460;28;20022;-74
2023/04/07 06:06:48;;;;;;;27.87;16.33;;;;;;;;;;5010296;28;20373;-73
2023/04/07 06:09:14;;;;;;;35.23;17.97;;;;;;;;;;5010508;28;20076;-73
2023/04/07 06:11:40;;;;;;;31.73;16.77;;;;;;;;;;5019137;28;20063;-75
2023/04/07 06:14:05;;;;;;;29.93;17.30;;;;;;;;;;5028939;28;20053;-74
2023/04/07 06:16:31;;;;;;;27.77;16.30;;;;;;;;;;5028460;28;20079;-74
2023/04/07 06:18:56;;;;;;;36.43;17.23;;;;;;;;;;5029013;28;20032;-75
2023/04/07 06:21:22;;;;;;;28.03;16.43;;;;;;;;;;5028846;28;20032;-75
2023/04/07 06:23:48;;;;;;;32.33;17.50;;;;;;;;;;5029680;28;20026;-74
2023/04/07 06:26:14;;;;;;;31.73;16.13;;;;;;;;;;5027889;28;20056;-74
2023/04/07 06:28:39;;;;;;;24.27;16.13;;;;;;;;;;5028149;28;20061;-73
2023/04/07 06:31:06;;;;;;;26.63;14.87;;;;;;;;;;5028138;28;20109;-74
2023/04/07 06:33:31;;;;;;;29.03;17.07;;;;;;;;;;5030228;28;20025;-74
2023/04/07 06:35:57;;;;;;;28.03;15.47;;;;;;;;;;5030743;28;20041;-74
2023/04/07 06:38:22;;;;;;;28.20;16.57;;;;;;;;;;5029567;28;20040;-74
2023/04/07 06:40:48;;;;;;;30.33;16.27;;;;;;;;;;5015192;28;20823;-75
2023/04/07 06:43:13;;;;;;;27.70;15.13;;;;;;;;;;5008459;28;20029;-74
2023/04/07 06:45:39;;;;;;;27.00;15.23;;;;;;;;;;5009925;28;20273;-73
2023/04/07 06:48:05;;;;;;;29.60;14.93;;;;;;;;;;5009171;28;20474;-74
2023/04/07 06:50:31;;;;;;;26.00;15.33;;;;;;;;;;5014597;28;20029;-74
2023/04/07 06:52:56;;;;;;;26.33;15.50;;;;;;;;;;5014307;28;20738;-75
2023/04/07 06:55:22;;;;;;;29.87;16.13;;;;;;;;;;5017576;28;20409;-73
2023/04/07 06:57:48;;;;;;;31.53;16.40;;;;;;;;;;5016229;28;20060;-74
2023/04/07 07:00:14;;;;;;;27.03;15.57;;;;;;;;;;5014939;28;20390;-74
2023/04/07 07:02:39;;;;;;;27.67;15.33;;;;;;;;;;5015060;28;20033;-74
2023/04/07 07:05:05;;;;;;;28.40;15.80;;;;;;;;;;5016239;28;20445;-73
2023/04/07 07:07:31;;;;;;;26.67;16.17;;;;;;;;;;5014485;28;20382;-73
2023/04/07 07:09:56;;;;;;;44.53;19.37;;;;;;;;;;5016274;28;20025;-74
2023/04/07 07:12:22;;;;;;;35.27;17.40;;;;;;;;;;5016153;28;20080;-73
2023/04/07 07:14:47;;;;;;;31.47;16.43;;;;;;;;;;4998679;28;20033;-74
2023/04/07 07:17:13;;;;;;;29.10;16.43;;;;;;;;;;5014922;28;20026;-73
2023/04/07 07:19:39;;;;;;;23.57;14.30;;;;;;;;;;5016120;28;20030;-74
2023/04/07 07:22:04;;;;;;;33.83;15.40;;;;;;;;;;5015829;28;20030;-73
2023/04/07 07:24:32;;;;;;;26.63;14.97;;;;;;;;;;5016635;28;20377;-75
2023/04/07 07:26:58;;;;;;;26.37;14.70;;;;;;;;;;5014527;28;20006;-73
2023/04/07 07:29:24;;;;;;;30.97;15.23;;;;;;;;;;5014569;28;20052;-73
2023/04/07 07:31:49;;;;;;;26.90;14.93;;;;;;;;;;5015876;28;20470;-73
2023/04/07 07:34:15;;;;;;;24.70;14.67;;;;;;;;;;5013977;28;20034;-75
2023/04/07 07:36:41;;;;;;;27.50;14.93;;;;;;;;;;5014283;28;20334;-74
2023/04/07 07:39:06;;;;;;;31.07;14.97;;;;;;;;;;5014689;28;20440;-74
2023/04/07 07:41:32;;;;;;;27.90;15.93;;;;;;;;;;5016720;28;20034;-74
2023/04/07 07:43:57;;;;;;;28.87;14.80;;;;;;;;;;5015728;28;20096;-75
2023/04/07 07:46:24;;;;;;;23.27;14.83;;;;;;;;;;5015314;28;20490;-74
2023/04/07 07:48:51;;;;;;;30.07;15.63;;;;;;;;;;5016407;28;20045;-75
2023/04/07 07:51:17;;;;;;;24.03;15.07;;;;;;;;;;5016348;28;20064;-74
2023/04/07 07:53:44;;;;;;;25.37;14.90;;;;;;;;;;5015061;28;20073;-74
2023/04/07 07:56:09;;;;;;;29.93;14.37;;;;;;;;;;5014797;28;20030;-73
2023/04/07 07:58:35;;;;;;;30.27;15.60;;;;;;;;;;5014718;28;20014;-76
2023/04/07 08:01:01;;;;;;;26.13;16.70;;;;;;;;;;5011966;28;20041;-73
2023/04/07 08:03:26;;;;;;;27.50;15.13;;;;;;;;;;5012947;28;20034;-73
2023/04/07 08:05:52;;;;;;;23.93;14.60;;;;;;;;;;5011395;28;20363;-74
2023/04/07 08:08:18;;;;;;;30.43;15.50;;;;;;;;;;5012554;28;20474;-74
2023/04/07 08:10:43;;;;;;;27.93;15.93;;;;;;;;;;5010945;28;20117;-74
2023/04/07 08:13:09;;;;;;;28.63;15.97;;;;;;;;;;5012092;28;20061;-75
2023/04/07 08:15:34;;;;;;;30.90;15.17;;;;;;;;;;5012231;28;20071;-74
2023/04/07 08:18:03;;;;;;;37.22;13.63;;;;;;;;;;5012338;28;20145;-74
2023/04/07 08:20:29;;;;;;;18.73;10.82;;;;;;;;;;5010110;28;20033;-75
2023/04/07 08:22:55;;;;;;;19.45;11.18;;;;;;;;;;5011943;28;20041;-75
2023/04/07 08:25:20;;;;;;;29.08;14.70;;;;;;;;;;5012046;28;20040;-74
2023/04/07 08:27:46;;;;;;;29.60;14.40;;;;;;;;;;5010396;28;20329;-73
2023/04/07 08:30:12;;;;;;;30.48;13.55;;;;;;;;;;5012075;28;20033;-75
2023/04/07 08:32:40;;;;;;;21.80;13.57;;;;;;;;;;5011878;28;20496;-74
2023/04/07 08:35:05;;;;;;;21.25;11.60;;;;;;;;;;5010037;28;20053;-74
2023/04/07 08:37:32;;;;;;;19.00;9.77;;;;;;;;;;5011679;28;20049;-73
2023/04/07 08:39:58;;;;;;;20.27;10.88;;;;;;;;;;5018418;28;20021;-73
2023/04/07 08:42:28;;;;;;;19.45;11.20;;;;;;;;;;5030361;28;20028;-74
2023/04/07 08:44:57;;;;;;;18.85;8.95;;;;;;;;;;5030964;28;20041;-73
2023/04/07 08:47:26;;;;;;;17.50;8.80;;;;;;;;;;5030027;28;20038;-73
2023/04/07 08:49:55;;;;;;;18.38;9.52;;;;;;;;;;5031255;28;20025;-74
2023/04/07 08:52:22;;;;;;;19.20;8.57;;;;;;;;;;5029631;28;20485;-74
2023/04/07 08:54:48;;;;;;;15.40;8.55;;;;;;;;;;5031314;28;20068;-73
2023/04/07 08:57:16;;;;;;;15.52;8.20;;;;;;;;;;5031144;28;20032;-74
2023/04/07 08:59:44;;;;;;;16.63;8.38;;;;;;;;;;5031350;28;20049;-73
2023/04/07 09:02:09;;;;;;;14.63;8.25;;;;;;;;;;5029069;28;20048;-73
2023/04/07 09:04:35;;;;;;;18.65;8.50;;;;;;;;;;5030347;28;20385;-74
2023/04/07 09:07:01;;;;;;;16.85;8.13;;;;;;;;;;5029859;28;20112;-74
2023/04/07 09:09:28;;;;;;;13.20;8.75;;;;;;;;;;5029371;28;20032;-73
2023/04/07 09:11:53;;;;;;;15.20;8.40;;;;;;;;;;5029098;28;20026;-75
2023/04/07 09:14:20;;;;;;;14.63;7.63;;;;;;;;;;5029301;28;20027;-73
2023/04/07 09:16:46;;;;;;;12.55;8.02;;;;;;;;;;5031678;28;20033;-74
2023/04/07 09:19:11;;;;;;;15.32;8.07;;;;;;;;;;5030058;28;20488;-74
2023/04/07 09:21:51;;;;;;;15.15;8.63;;;;;;;;;;5030228;28;20104;-74
2023/04/07 09:24:25;;;;;;;17.48;9.07;;;;;;;;;;5031893;28;20029;-75
2023/04/07 09:26:51;;;;;;;19.35;8.82;;;;;;;;;;5031597;28;20029;-74
2023/04/07 09:29:20;;;;;;;14.65;8.32;;;;;;;;;;5031379;28;20030;-74
2023/04/07 09:31:54;;;;;;;17.13;8.70;;;;;;;;;;5031846;28;20409;-74
2023/04/07 09:34:23;;;;;;;15.32;8.02;;;;;;;;;;5031523;28;20029;-75
2023/04/07 09:36:49;;;;;;;13.70;8.20;;;;;;;;;;5031422;28;20056;-72
2023/04/07 09:39:15;;;;;;;19.33;8.75;;;;;;;;;;5028555;28;20317;-74
2023/04/07 09:41:40;;;;;;;12.77;8.30;;;;;;;;;;5009861;28;20029;-74
2023/04/07 09:44:06;;;;;;;18.08;9.70;;;;;;;;;;5010203;28;20042;-75
2023/04/07 09:46:31;;;;;;;22.50;9.23;;;;;;;;;;5010889;28;20022;-75
2023/04/07 09:49:06;;;;;;;18.60;9.77;;;;;;;;;;5010679;28;20037;-75
2023/04/07 09:51:34;;;;;;;15.63;8.77;;;;;;;;;;5009422;28;20034;-74
2023/04/07 09:54:00;;;;;;;17.90;8.65;;;;;;;;;;5010879;28;20022;-74
2023/04/07 09:56:26;;;;;;;15.45;8.48;;;;;;;;;;5008988;28;20088;-76
2023/04/07 09:58:52;;;;;;;19.65;8.57;;;;;;;;;;5009790;28;20021;-74
2023/04/07 10:01:19;;;;;;;14.60;8.43;;;;;;;;;;5009559;28;20516;-76
2023/04/07 10:03:46;;;;;;;16.55;9.35;;;;;;;;;;5009526;28;20109;-75
2023/04/07 10:06:12;;;;;;;15.70;8.18;;;;;;;;;;5010612;28;20351;-74
2023/04/07 10:08:41;;;;;;;13.57;7.75;;;;;;;;;;5010493;28;20049;-74
2023/04/07 10:11:07;;;;;;;19.33;7.97;;;;;;;;;;5009897;28;20426;-74
2023/04/07 10:13:36;;;;;;;17.15;8.32;;;;;;;;;;5010581;28;20507;-75
2023/04/07 10:16:04;;;;;;;18.02;8.20;;;;;;;;;;5008961;28;20026;-73
2023/04/07 10:18:32;;;;;;;12.23;8.85;;;;;;;;;;5009077;28;20036;-76
2023/04/07 10:21:06;;;;;;;16.13;7.80;;;;;;;;;;5009043;28;20109;-75
2023/04/07 10:23:52;;;;;;;13.52;7.40;;;;;;;;;;5009062;28;20022;-74
2023/04/07 10:26:23;;;;;;;16.30;8.43;;;;;;;;;;5010691;28;20034;-73
2023/04/07 10:28:54;;;;;;;14.57;7.87;;;;;;;;;;5008708;28;20030;-72
2023/04/07 10:31:21;;;;;;;18.50;8.98;;;;;;;;;;5008876;28;20267;-75
2023/04/07 10:33:52;;;;;;;15.77;8.25;;;;;;;;;;5008973;28;20069;-73
2023/04/07 10:36:19;;;;;;;22.55;8.45;;;;;;;;;;5008691;28;20448;-74
2023/04/07 10:39:08;;;;;;;15.95;7.38;;;;;;;;;;5010382;28;20125;-74
2023/04/07 10:41:37;;;;;;;14.25;7.25;;;;;;;;;;5017235;28;20042;-75
2023/04/07 10:44:04;;;;;;;14.98;8.50;;;;;;;;;;5008808;28;20056;-74
2023/04/07 10:46:48;;;;;;;15.13;8.20;;;;;;;;;;5009602;28;20021;-74
2023/04/07 10:49:19;;;;;;;13.07;7.85;;;;;;;;;;5009335;28;20035;-74
2023/04/07 10:52:10;;;;;;;15.55;9.13;;;;;;;;;;5008824;28;20061;-74
2023/04/07 10:54:36;;;;;;;15.65;8.10;;;;;;;;;;5009657;28;20105;-74
2023/04/07 10:57:02;;;;;;;14.77;6.95;;;;;;;;;;5010051;28;20093;-75
2023/04/07 10:59:31;;;;;;;9.23;6.45;;;;;;;;;;5010101;28;20026;-74
2023/04/07 11:02:12;;;;;;;11.63;6.35;;;;;;;;;;5010498;28;20026;-72
2023/04/07 11:04:39;;;;;;;14.32;6.80;;;;;;;;;;5008693;28;20121;-73
2023/04/07 11:07:06;;;;;;;13.13;7.25;;;;;;;;;;5008347;28;20056;-74
2023/04/07 11:09:32;;;;;;;15.23;6.72;;;;;;;;;;5011207;28;20061;-73
2023/04/07 11:11:57;;;;;;;12.85;6.70;;;;;;;;;;5010777;28;20064;-74
2023/04/07 11:14:30;;;;;;;10.73;6.25;;;;;;;;;;5009962;28;20052;-74
2023/04/07 11:16:57;;;;;;;10.73;6.47;;;;;;;;;;5010189;28;20076;-75
2023/04/07 11:19:23;;;;;;;14.23;5.97;;;;;;;;;;5008231;28;20036;-74
2023/04/07 11:21:48;;;;;;;13.23;7.13;;;;;;;;;;5007871;28;20423;-73
2023/04/07 11:24:33;;;;;;;9.23;5.57;;;;;;;;;;5010064;28;20050;-74
2023/04/07 11:27:00;;;;;;;10.88;6.18;;;;;;;;;;5007689;28;20494;-74
2023/04/07 11:29:32;;;;;;;10.27;6.45;;;;;;;;;;5009311;28;20076;-73
2023/04/07 11:31:59;;;;;;;10.82;6.55;;;;;;;;;;5008400;28;20030;-74
2023/04/07 11:34:30;;;;;;;12.15;6.55;;;;;;;;;;5008246;28;20041;-74
2023/04/07 11:36:58;;;;;;;12.27;7.05;;;;;;;;;;5011246;28;20492;-74
2023/04/07 11:39:32;;;;;;;15.20;7.25;;;;;;;;;;5014744;28;20116;-75
2023/04/07 11:41:57;;;;;;;11.85;6.72;;;;;;;;;;5032252;28;20037;-73
2023/04/07 11:44:25;;;;;;;14.02;6.60;;;;;;;;;;5033133;28;20037;-74
2023/04/07 11:47:05;;;;;;;14.30;7.22;;;;;;;;;;5032042;28;20029;-74
2023/04/07 11:49:31;;;;;;;13.32;7.20;;;;;;;;;;5031472;28;20033;-74
2023/04/07 11:52:01;;;;;;;15.68;7.70;;;;;;;;;;5032957;28;20029;-73
2023/04/07 11:54:46;;;;;;;12.93;7.18;;;;;;;;;;5031686;28;20040;-75
2023/04/07 11:57:12;;;;;;;12.77;7.15;;;;;;;;;;5032852;28;20025;-75
2023/04/07 11:59:40;;;;;;;14.20;7.47;;;;;;;;;;5032078;28;20342;-73
2023/04/07 12:02:06;;;;;;;16.65;8.80;;;;;;;;;;5031386;28;20462;-73
2023/04/07 12:04:32;;;;;;;12.13;7.68;;;;;;;;;;5031474;28;20464;-74
2023/04/07 12:07:09;;;;;;;15.77;8.48;;;;;;;;;;5031452;28;20025;-74
2023/04/07 12:09:36;;;;;;;17.95;10.50;;;;;;;;;;5031644;28;20040;-74
2023/04/07 12:12:05;;;;;;;14.98;8.52;;;;;;;;;;5031666;28;20178;-75
2023/04/07 12:14:31;;;;;;;16.15;8.07;;;;;;;;;;5031616;28;20030;-74
2023/04/07 12:16:57;;;;;;;14.48;9.07;;;;;;;;;;5031486;28;20025;-74
2023/04/07 12:19:27;;;;;;;13.88;8.57;;;;;;;;;;5034087;28;20044;-75
2023/04/07 12:21:54;;;;;;;17.65;8.75;;;;;;;;;;5031421;28;20039;-74
2023/04/07 12:24:20;;;;;;;18.35;9.25;;;;;;;;;;5031283;28;20087;-74
2023/04/07 12:26:46;;;;;;;16.08;10.00;;;;;;;;;;5030964;28;20029;-74
2023/04/07 12:29:12;;;;;;;17.67;8.10;;;;;;;;;;5032036;28;20029;-74
2023/04/07 12:31:38;;;;;;;20.45;9.35;;;;;;;;;;5031322;28;20030;-76
2023/04/07 12:34:04;;;;;;;16.40;9.05;;;;;;;;;;5032195;28;20429;-74
2023/04/07 12:36:30;;;;;;;13.50;9.13;;;;;;;;;;5031308;28;20033;-75
2023/04/07 12:38:55;;;;;;;14.98;8.13;;;;;;;;;;5032586;28;20035;-74
2023/04/07 12:41:22;;;;;;;14.82;9.65;;;;;;;;;;5026434;28;20061;-74
2023/04/07 12:43:48;;;;;;;17.75;9.10;;;;;;;;;;5011649;28;20131;-74
2023/04/07 12:46:13;;;;;;;15.63;9.38;;;;;;;;;;5010776;28;20121;-75
2023/04/07 12:48:39;;;;;;;19.33;8.50;;;;;;;;;;5010942;28;20061;-72
2023/04/07 12:51:05;;;;;;;14.10;9.25;;;;;;;;;;5010817;28;20030;-74
2023/04/07 12:53:31;;;;;;;21.20;8.60;;;;;;;;;;5010495;28;20036;-74
2023/04/07 12:55:57;;;;;;;18.10;10.68;;;;;;;;;;5012036;28;20132;-74
2023/04/07 12:58:24;;;;;;;19.80;9.40;;;;;;;;;;5011840;28;20060;-75
2023/04/07 13:00:50;;;;;;;15.30;8.35;;;;;;;;;;5010729;28;20033;-74
2023/04/07 13:03:15;;;;;;;17.15;9.88;;;;;;;;;;5011803;28;20441;-75
2023/04/07 13:05:41;;;;;;;16.10;9.18;;;;;;;;;;5010615;28;20045;-74
2023/04/07 13:08:07;;;;;;;15.60;8.95;;;;;;;;;;5010509;28;20026;-73
2023/04/07 13:10:32;;;;;;;23.10;10.27;;;;;;;;;;5011211;28;20040;-74
2023/04/07 13:12:58;;;;;;;17.73;10.05;;;;;;;;;;4994199;28;20534;-74
2023/04/07 13:15:24;;;;;;;14.40;9.02;;;;;;;;;;5011582;28;20055;-75
2023/04/07 13:17:49;;;;;;;18.17;9.80;;;;;;;;;;5011470;28;20034;-74
2023/04/07 13:20:15;;;;;;;15.82;9.43;;;;;;;;;;5011331;28;20108;-74
2023/04/07 13:22:40;;;;;;;14.52;8.57;;;;;;;;;;5011504;28;20427;-73
2023/04/07 13:25:06;;;;;;;12.52;8.35;;;;;;;;;;5010008;28;20033;-73
2023/04/07 13:27:32;;;;;;;40.65;11.15;;;;;;;;;;5011286;28;20030;-74
2023/04/07 13:29:57;;;;;;;25.85;12.88;;;;;;;;;;5010040;28;20561;-74
2023/04/07 13:32:23;;;;;;;19.42;9.35;;;;;;;;;;5009785;28;20079;-74
2023/04/07 13:34:48;;;;;;;16.17;9.07;;;;;;;;;;5009788;28;20498;-73
2023/04/07 13:37:15;;;;;;;19.00;9.52;;;;;;;;;;5009766;28;20030;-75
2023/04/07 13:39:41;;;;;;;15.15;9.18;;;;;;;;;;5015217;28;20601;-73
2023/04/07 13:42:08;;;;;;;17.55;9.18;;;;;;;;;;5031170;28;20113;-74
2023/04/07 13:44:35;;;;;;;16.80;9.52;;;;;;;;;;5030837;28;20050;-74
2023/04/07 13:47:01;;;;;;;14.73;9.48;;;;;;;;;;5029362;28;20060;-74
2023/04/07 13:49:28;;;;;;;19.63;10.15;;;;;;;;;;5030668;28;20033;-73
2023/04/07 13:51:54;;;;;;;19.23;9.50;;;;;;;;;;5028981;28;20029;-76
2023/04/07 13:54:20;;;;;;;17.50;10.00;;;;;;;;;;5028747;28;20393;-74
2023/04/07 13:56:47;;;;;;;17.50;9.70;;;;;;;;;;5030189;28;20095;-74
2023/04/07 13:59:13;;;;;;;15.43;10.00;;;;;;;;;;5028587;28;20236;-74
2023/04/07 14:01:39;;;;;;;18.33;9.63;;;;;;;;;;5028814;28;20036;-73
2023/04/07 14:04:05;;;;;;;17.13;9.65;;;;;;;;;;5029116;28;20047;-74
2023/04/07 14:06:31;;;;;;;20.27;10.00;;;;;;;;;;5028577;28;20037;-73
2023/04/07 14:08:57;;;;;;;20.02;8.93;;;;;;;;;;5028990;28;20033;-73
2023/04/07 14:11:22;;;;;;;16.70;9.35;;;;;;;;;;5028822;28;20030;-74
2023/04/07 14:13:49;;;;;;;16.73;8.90;;;;;;;;;;5031297;28;20069;-74
2023/04/07 14:16:16;;;;;;;14.55;8.13;;;;;;;;;;5029186;28;20473;-73
2023/04/07 14:18:42;;;;;;;15.95;8.55;;;;;;;;;;5030502;28;20092;-76
2023/04/07 14:21:07;;;;;;;15.05;8.63;;;;;;;;;;5028966;28;20057;-74